עמוד ראשי
METAR-TAF:

METAR-TAF

שדות תעופה :

אסדת קידוח

Snorre B, נורבגיה

קו רוחב: 61-32N, קו אורך: 2-12E, גובה: 90מטר

תצפית מזג אוויר נוכחית

הדו"ח נערך לפני 22דקות, בשעה 21:50 UTC
רוח 2קשר מכיוון צפון/צפון-מערב
טמפרטורת 9 צלסיוס
לחות 87%
לחץ 1016 hPa
ראות 10 קילומטר או יותר

METAR: ENQR 182150Z AUTO 34002KT 9999 FEW012/// OVC025/// 09/07 Q1016 W17/S3

זמן: 00:12 (22:12 UTC)


TAF: חסר

תצפיות ותחזיות מזג אוויר לגבי יותר מ- 4,000 שדות תעופה ברחבי העולם. דוחות METAR ו- TAF.

התחנות הזמינות מסומנות בנקודות צהובות ואדומות על גבי המפה.

העבר את העכבר לנקודה הצבעונית על מנת לראות את שם התחנה.

לאחר מכן, לחץ כדי לראות את תוכן ואת תחזיות מזג האוויר.

כדי לשנות את המפה: לחץ על הכפתורים הירוקים עם הפלוס השחור כדי להתקרב; על הכפתור הירוק עם המקף כדי להתרחק; או בחיצים הירוקים למפות סמוכות.


METAR-TAF: